Time,TemperatureF,DewpointF,PressureIn,WindDirection,WindDirectionDegrees,WindSpeedMPH,WindSpeedGustMPH,Humidity,HourlyPrecipIn,Conditions,Clouds,dailyrainin,SoftwareType,DateUTC
2013-09-08 00:05:00,76.5,71.7,29.83,NNW,340,0.0,0.0,85,0.00,,---,0.00,VWS V14.01,2013-09-08 05:05:00,
2013-09-08 00:35:00,75.7,71.2,29.83,NNW,340,0.0,0.0,86,0.00,,---,0.00,VWS V14.01,2013-09-08 05:35:00,
2013-09-08 01:05:00,75.2,71.1,29.83,NNW,340,0.0,0.0,87,0.00,,---,0.00,VWS V14.01,2013-09-08 06:05:00,
2013-09-08 01:35:00,74.6,70.8,29.84,NNW,340,0.0,0.0,88,0.00,,---,0.00,VWS V14.01,2013-09-08 06:35:00,
2013-09-08 02:05:00,73.9,70.5,29.83,NNW,340,0.0,6.0,89,0.00,,---,0.00,VWS V14.01,2013-09-08 07:05:00,
2013-09-08 02:35:00,73.2,70.1,29.84,NNW,340,0.0,0.0,90,0.00,,---,0.00,VWS V14.01,2013-09-08 07:35:00,
2013-09-08 03:05:00,72.5,69.7,29.83,NNW,340,0.0,0.0,91,0.00,,---,0.00,VWS V14.01,2013-09-08 08:05:00,
2013-09-08 03:35:00,72.4,69.6,29.83,NNW,340,0.0,6.0,91,0.00,,---,0.00,VWS V14.01,2013-09-08 08:35:00,
2013-09-08 04:05:00,71.9,69.4,29.82,NNW,340,3.0,3.0,92,0.00,,---,0.00,VWS V14.01,2013-09-08 09:05:00,
2013-09-08 04:35:00,71.3,69.2,29.83,NNW,340,0.0,3.0,93,0.00,,---,0.00,VWS V14.01,2013-09-08 09:35:00,
2013-09-08 05:05:00,70.9,68.8,29.83,NNW,340,0.0,0.0,93,0.00,,---,0.00,VWS V14.01,2013-09-08 10:05:00,
2013-09-08 05:35:00,70.5,68.4,29.82,NNW,340,0.0,0.0,93,0.00,,---,0.00,VWS V14.01,2013-09-08 10:35:00,
2013-09-08 06:05:00,70.6,68.2,29.83,NNE,12,0.0,9.0,92,0.00,,---,0.00,VWS V14.01,2013-09-08 11:05:00,
2013-09-08 06:35:00,70.5,68.1,29.83,NNE,13,0.0,9.0,92,0.00,,---,0.00,VWS V14.01,2013-09-08 11:35:00,
2013-09-08 07:05:00,71.4,68.6,29.85,NE,47,0.0,12.0,91,0.00,,---,0.00,VWS V14.01,2013-09-08 12:05:00,
2013-09-08 07:35:00,71.6,68.8,29.85,NE,44,0.0,15.0,91,0.00,,---,0.00,VWS V14.01,2013-09-08 12:35:00,
2013-09-08 08:05:00,72.2,69.1,29.86,NE,43,3.0,15.0,90,0.00,,---,0.00,VWS V14.01,2013-09-08 13:05:00,
2013-09-08 08:35:00,73.0,69.6,29.85,East,90,6.0,21.0,89,0.00,,---,0.00,VWS V14.01,2013-09-08 13:35:00,
2013-09-08 09:05:00,73.8,69.3,29.86,East,82,6.0,36.0,86,0.00,,---,0.00,VWS V14.01,2013-09-08 14:05:00,
2013-09-08 09:35:00,74.7,69.9,29.86,ESE,112,6.0,33.0,85,0.00,,---,0.00,VWS V14.01,2013-09-08 14:35:00,
2013-09-08 10:05:00,76.8,70.5,29.87,NE,48,3.0,30.0,81,0.00,,---,0.00,VWS V14.01,2013-09-08 15:05:00,
2013-09-08 10:35:00,78.8,70.6,29.88,ESE,120,27.0,27.0,76,0.00,,---,0.00,VWS V14.01,2013-09-08 15:35:00,
2013-09-08 11:05:00,79.7,71.5,29.88,ESE,109,0.0,30.0,76,0.00,,---,0.00,VWS V14.01,2013-09-08 16:05:00,
2013-09-08 11:35:00,80.8,71.3,29.87,ENE,72,0.0,27.0,73,0.00,,---,0.00,VWS V14.01,2013-09-08 16:35:00,
2013-09-08 12:05:00,82.3,72.0,29.86,NE,37,3.0,27.0,71,0.00,,---,0.00,VWS V14.01,2013-09-08 17:05:00,
2013-09-08 12:35:00,83.3,72.1,29.85,ESE,120,15.0,27.0,69,0.00,,---,0.00,VWS V14.01,2013-09-08 17:35:00,
2013-09-08 13:05:00,83.9,72.2,29.84,SE,128,12.0,30.0,68,0.00,,---,0.00,VWS V14.01,2013-09-08 18:05:00,
2013-09-08 13:35:00,85.3,73.1,29.83,ESE,107,3.0,36.0,67,0.00,,---,0.00,VWS V14.01,2013-09-08 18:35:00,
2013-09-08 14:05:00,84.4,73.1,29.81,East,84,6.0,27.0,69,0.00,,---,0.00,VWS V14.01,2013-09-08 19:05:00,
2013-09-08 14:35:00,85.7,73.5,29.81,SE,128,6.0,27.0,67,0.00,,---,0.00,VWS V14.01,2013-09-08 19:35:00,
2013-09-08 15:05:00,85.6,73.4,29.80,SE,139,18.0,30.0,67,0.00,,---,0.00,VWS V14.01,2013-09-08 20:05:00,
2013-09-08 15:35:00,86.9,73.3,29.80,ENE,70,0.0,30.0,64,0.00,,---,0.00,VWS V14.01,2013-09-08 20:35:00,
2013-09-08 16:05:00,86.2,73.1,29.80,ESE,114,6.0,27.0,65,0.00,,---,0.00,VWS V14.01,2013-09-08 21:05:00,
2013-09-08 16:35:00,87.3,72.7,29.79,ESE,121,6.0,42.0,62,0.00,,---,0.00,VWS V14.01,2013-09-08 21:35:00,
2013-09-08 17:05:00,87.4,73.7,29.78,SE,141,9.0,33.0,64,0.00,,---,0.00,VWS V14.01,2013-09-08 22:05:00,
2013-09-08 17:35:00,87.8,74.1,29.78,ESE,115,6.0,24.0,64,0.00,,---,0.00,VWS V14.01,2013-09-08 22:35:00,
2013-09-08 18:05:00,87.5,73.8,29.78,East,94,0.0,27.0,64,0.00,,---,0.00,VWS V14.01,2013-09-08 23:05:00,
2013-09-08 18:35:00,86.2,73.5,29.77,ESE,120,3.0,21.0,66,0.00,,---,0.00,VWS V14.01,2013-09-08 23:35:00,
2013-09-08 19:05:00,84.3,73.5,29.77,SE,140,3.0,21.0,70,0.00,,---,0.00,VWS V14.01,2013-09-09 00:05:00,
2013-09-08 19:35:00,82.6,72.7,29.77,ESE,109,3.0,24.0,72,0.00,,---,0.00,VWS V14.01,2013-09-09 00:35:00,
2013-09-08 20:05:00,81.2,72.1,29.77,SE,134,3.0,18.0,74,0.00,,---,0.00,VWS V14.01,2013-09-09 01:05:00,
2013-09-08 20:35:00,80.1,71.9,29.78,SE,132,3.0,24.0,76,0.00,,---,0.00,VWS V14.01,2013-09-09 01:35:00,
2013-09-08 21:05:00,79.3,71.5,29.78,ESE,121,9.0,24.0,77,0.00,,---,0.00,VWS V14.01,2013-09-09 02:05:00,
2013-09-08 21:35:00,78.5,71.4,29.78,ESE,118,9.0,24.0,79,0.00,,---,0.00,VWS V14.01,2013-09-09 02:35:00,
2013-09-08 22:05:00,77.6,71.3,29.77,ESE,123,6.0,24.0,81,0.00,,---,0.00,VWS V14.01,2013-09-09 03:05:00,
2013-09-08 22:35:00,76.8,70.9,29.77,ESE,123,9.0,24.0,82,0.00,,---,0.00,VWS V14.01,2013-09-09 03:35:00,
2013-09-08 23:05:00,76.0,70.8,29.77,ESE,123,9.0,21.0,84,0.00,,---,0.00,VWS V14.01,2013-09-09 04:05:00,
2013-09-08 23:35:00,75.5,70.7,29.76,SE,126,9.0,24.0,85,0.00,,---,0.00,VWS V14.01,2013-09-09 04:35:00,